Latest Weather Observations for Portland Airport

IDV60801

Issued at 6:42 am EST Sunday 18 April 2021 (issued every 10 minutes, with the page automatically refreshed every 10 minutes)

About weather observations | Map of weather stations | Latest weather observations for VIC | Other Formats
Station Details ID: 090171 Name: CASHMORE AIRPORT Lat: -38.31 Lon: 141.47 Height: 80.9 m
Data from the previous 72 hours. | See also: Recent months at Portland Airport
Date/Time
EST
Temp
°C
App
Temp
°C
Dew
Point
°C
Rel
Hum
%
Delta-T
°C
Wind Press
QNH
hPa
Press
MSL
hPa
Rain since
9am
mm
Dir  Spd
km/h
Gust
km/h
Spd
kts
Gust
kts
18/06:30am 13.5 10.7 12.6 94 0.5 WNW 19 24 10 13 1022.9 1022.9 1.4
18/06:24am 13.4 11.0 12.5 94 0.5 WNW 17 24 9 13 1022.9 1022.9 0.8
18/06:19am 13.6 11.6 12.7 94 0.5 WNW 15 22 8 12 1023.0 1023.0 0.8
18/06:05am 13.5 11.1 12.6 94 0.5 W 17 22 9 12 1023.1 1023.1 0.8
18/06:00am 13.4 10.5 12.3 93 0.6 W 19 28 10 15 1023.2 1023.2 0.8
18/05:59am 13.4 10.5 12.3 93 0.6 W 19 28 10 15 1023.2 1023.2 0.8
18/05:44am 13.3 10.2 12.2 93 0.6 WNW 20 32 11 17 1023.2 1023.2 0.8
18/05:30am 13.0 10.3 11.7 92 0.7 WNW 17 22 9 12 1023.0 1023.0 0.4
18/05:23am 13.1 11.2 11.8 92 0.7 WNW 13 22 7 12 1023.1 1023.1 0.4
18/05:00am 12.7 11.1 11.6 93 0.6 NW 11 19 6 10 1023.0 1023.0 0.2
18/04:30am 12.3 10.5 10.9 91 0.7 NNW 11 15 6 8 1022.9 1022.9 0.2
18/04:00am 12.5 10.8 11.1 91 0.7 NNW 11 15 6 8 1023.0 1023.0 0.0
18/03:30am 12.5 10.7 10.9 90 0.8 NNW 11 15 6 8 1023.1 1023.1 0.0
18/03:00am 13.8 11.8 11.5 86 1.2 WNW 13 19 7 10 1023.2 1023.2 0.0
18/02:30am 13.7 12.3 11.0 84 1.4 W 9 13 5 7 1023.4 1023.4 0.0
18/02:00am 14.4 12.1 11.6 83 1.5 WSW 15 20 8 11 1023.6 1023.6 0.0
18/01:30am 14.2 12.2 11.4 83 1.5 WSW 13 19 7 10 1024.0 1024.0 0.0
18/01:00am 14.3 12.0 11.6 84 1.4 WSW 15 20 8 11 1024.1 1024.1 0.0
18/12:30am 14.2 11.4 11.4 83 1.5 W 17 20 9 11 1024.2 1024.2 0.0
18/12:00am 14.0 11.9 11.2 83 1.5 WSW 13 19 7 10 1024.4 1024.4 0.0
 
Date/Time
EST
Temp
°C
App
Temp
°C
Dew
Point
°C
Rel
Hum
%
Delta-T
°C
Wind Press
QNH
hPa
Press
MSL
hPa
Rain since
9am
mm
Dir  Spd
km/h
Gust
km/h
Spd
kts
Gust
kts
17/11:30pm 13.3 11.7 11.4 88 1.0 WSW 11 15 6 8 1024.8 1024.8 0.0
17/11:00pm 13.2 11.7 11.8 91 0.7 W 11 13 6 7 1024.9 1024.9 0.0
17/10:30pm 11.8 9.9 10.4 91 0.7 WSW 11 13 6 7 1025.2 1025.1 0.0
17/10:00pm 10.9 9.1 9.3 90 0.8 W 9 11 5 6 1025.3 1025.2 0.0
17/09:30pm 11.1 9.3 9.4 89 0.9 W 9 11 5 6 1025.3 1025.2 0.0
17/09:00pm 12.0 10.0 10.1 88 1.0 WSW 11 15 6 8 1025.2 1025.1 0.0
17/08:30pm 11.5 9.3 9.4 87 1.1 W 11 13 6 7 1025.3 1025.2 0.0
17/08:00pm 11.7 9.1 9.4 86 1.2 WSW 13 15 7 8 1025.3 1025.2 0.0
17/07:30pm 11.5 9.2 9.1 85 1.2 WSW 11 13 6 7 1025.3 1025.2 0.0
17/07:00pm 11.7 9.5 9.4 86 1.2 WSW 11 13 6 7 1025.0 1025.0 0.0
17/06:30pm 11.7 9.4 9.1 84 1.3 W 11 13 6 7 1024.8 1024.8 0.0
17/06:00pm 13.3 10.9 10.1 81 1.6 W 13 17 7 9 1024.7 1024.7 0.0
17/05:30pm 14.7 11.3 10.5 76 2.2 WSW 19 24 10 13 1024.6 1024.6 0.0
17/05:00pm 15.6 12.6 10.6 72 2.6 WSW 17 22 9 12 1024.5 1024.5 0.0
17/04:30pm 15.9 11.6 9.3 65 3.4 WSW 22 30 12 16 1024.4 1024.4 0.0
17/04:00pm 16.6 12.1 10.0 65 3.5 WSW 24 32 13 17 1024.4 1024.4 0.0
17/03:30pm 16.6 12.1 10.2 66 3.4 W 24 32 13 17 1024.4 1024.4 0.0
17/03:00pm 15.9 11.3 9.8 67 3.2 WSW 24 32 13 17 1024.5 1024.5 0.0
17/02:30pm 16.3 11.5 10.4 68 3.1 W 26 33 14 18 1024.6 1024.6 0.0
17/02:00pm 16.7 12.5 12.5 76 2.3 W 26 35 14 19 1024.7 1024.7 0.0
17/01:30pm 15.1 10.4 12.1 82 1.6 W 28 35 15 19 1024.8 1024.8 0.0
17/01:07pm 14.4 11.5 12.4 88 1.1 W 19 28 10 15 1025.3 1025.2 0.0
17/01:00pm 13.9 9.9 11.8 87 1.1 W 24 39 13 21 1025.4 1025.3 0.0
17/12:55pm 13.6 7.9 11.1 85 1.3 W 32 43 17 23 1025.4 1025.3 0.0
17/12:30pm 15.4 10.6 10.4 72 2.6 WNW 26 37 14 20 1025.5 1025.4 0.0
17/12:00pm 15.6 11.1 9.9 69 3.0 WNW 24 37 13 20 1025.8 1025.7 0.0
17/11:30am 15.4 10.7 9.3 67 3.2 WNW 24 30 13 16 1026.0 1025.9 0.0
17/11:00am 15.9 11.2 9.1 64 3.5 WNW 24 33 13 18 1026.0 1025.9 0.0
17/10:30am 15.9 11.0 8.6 62 3.7 WNW 24 33 13 18 1026.1 1026.0 0.0
17/10:00am 15.7 10.8 8.4 62 3.7 W 24 32 13 17 1026.1 1026.0 0.0
17/09:30am 15.8 11.3 8.5 62 3.7 W 22 30 12 16 1026.0 1025.9 0.0
17/09:00am 14.9 12.1 8.4 65 3.3 W 13 19 7 10 1026.0 1025.9 0.0
17/08:30am 14.3 10.2 7.8 65 3.2 W 19 24 10 13 1026.0 1025.9 0.0
17/08:00am 13.7 10.7 7.9 68 2.9 WSW 13 17 7 9 1025.8 1025.7 0.0
17/07:30am 12.4 9.8 7.9 74 2.2 WSW 11 13 6 7 1025.6 1025.5 0.0
17/07:00am 10.7 8.4 5.5 70 2.4 WNW 7 9 4 5 1025.2 1025.1 0.0
17/06:30am 10.8 7.5 4.3 64 2.9 WNW 11 13 6 7 1025.4 1025.3 0.0
17/06:00am 13.0 9.0 4.9 58 3.7 WSW 15 19 8 10 1025.3 1025.2 0.0
17/05:30am 13.4 8.6 4.6 55 4.1 WSW 19 26 10 14 1025.2 1025.1 0.0
17/05:00am 13.0 10.0 6.1 63 3.3 WSW 11 15 6 8 1025.2 1025.1 0.0
17/04:30am 12.8 9.7 5.7 62 3.3 W 11 15 6 8 1024.9 1024.9 0.0
17/04:00am 12.8 9.3 5.5 61 3.4 W 13 17 7 9 1024.8 1024.8 0.0
17/03:30am 12.9 8.1 4.6 57 3.8 WSW 19 24 10 13 1024.9 1024.9 0.0
17/03:00am 13.0 9.1 5.2 59 3.6 WSW 15 19 8 10 1025.2 1025.1 0.0
17/02:30am 13.2 8.9 5.1 58 3.8 WSW 17 22 9 12 1025.3 1025.2 0.0
17/02:00am 13.1 9.9 6.7 65 3.1 WSW 13 19 7 10 1025.3 1025.2 0.0
17/01:30am 12.4 10.3 5.8 64 3.1 WNW 6 7 3 4 1025.2 1025.1 0.0
17/01:00am 12.8 10.0 5.2 60 3.5 W 9 17 5 9 1025.3 1025.2 0.0
17/12:30am 13.0 9.7 4.7 57 3.8 SW 11 22 6 12 1025.5 1025.4 0.0
17/12:00am 12.5 9.3 5.0 60 3.4 W 11 15 6 8 1025.5 1025.4 0.0
 
Date/Time
EST
Temp
°C
App
Temp
°C
Dew
Point
°C
Rel
Hum
%
Delta-T
°C
Wind Press
QNH
hPa
Press
MSL
hPa
Rain since
9am
mm
Dir  Spd
km/h
Gust
km/h
Spd
kts
Gust
kts
16/11:30pm 12.6 9.6 4.3 57 3.8 SW 9 15 5 8 1025.7 1025.6 0.0
16/11:00pm 12.3 8.6 4.3 58 3.6 W 13 19 7 10 1025.8 1025.7 0.0
16/10:30pm 12.8 8.8 5.0 59 3.6 WSW 15 19 8 10 1025.8 1025.7 0.0
16/10:00pm 12.2 9.9 5.8 65 3.0 WSW 7 11 4 6 1025.7 1025.6 0.0
16/09:30pm 12.5 9.4 5.4 62 3.3 W 11 15 6 8 1025.8 1025.7 0.0
16/09:00pm 12.2 9.0 4.9 61 3.3 WSW 11 15 6 8 1025.8 1025.7 0.0
16/08:30pm 12.4 9.2 5.1 61 3.4 SW 11 17 6 9 1025.8 1025.7 0.0
16/08:00pm 12.1 9.6 5.0 62 3.3 WSW 7 11 4 6 1026.0 1025.9 0.0
16/07:30pm 12.3 9.1 5.0 61 3.4 WSW 11 17 6 9 1025.9 1025.8 0.0
16/07:00pm 11.8 9.4 5.4 65 3.0 WSW 7 9 4 5 1025.8 1025.7 0.0
16/06:30pm 11.9 9.8 5.8 66 2.9 WSW 6 7 3 4 1025.7 1025.6 0.0
16/06:00pm 12.2 9.5 5.4 63 3.1 W 9 11 5 6 1025.3 1025.2 0.0
16/05:30pm 12.6 10.3 5.8 63 3.2 WSW 7 11 4 6 1025.0 1025.0 0.0
16/05:00pm 12.9 9.9 4.3 56 3.9 WSW 9 13 5 7 1025.0 1025.0 0.0
16/04:30pm 13.2 10.5 5.4 59 3.7 WSW 9 15 5 8 1025.0 1025.0 0.0
16/04:00pm 13.4 9.4 5.1 57 3.9 SW 15 22 8 12 1025.0 1025.0 0.0
16/03:30pm 13.5 9.1 4.6 55 4.1 WSW 17 22 9 12 1025.0 1025.0 0.0
16/03:00pm 13.5 8.6 5.2 57 3.9 WSW 20 24 11 13 1024.8 1024.8 0.0
16/02:30pm 13.8 9.6 5.9 59 3.8 WSW 17 24 9 13 1024.7 1024.7 0.0
16/02:00pm 13.5 9.3 5.7 59 3.7 WSW 17 24 9 13 1024.7 1024.7 0.0
16/01:30pm 13.9 9.8 6.0 59 3.8 W 17 22 9 12 1025.2 1025.1 0.0
16/01:00pm 13.7 10.0 4.3 53 4.3 W 13 19 7 10 1025.5 1025.4 0.0
16/12:30pm 14.5 10.9 5.0 53 4.5 WSW 13 22 7 12 1025.6 1025.5 0.0
16/12:00pm 14.1 9.6 4.1 51 4.6 W 17 22 9 12 1025.9 1025.8 0.0
16/11:30am 13.5 10.1 4.1 53 4.3 SSW 11 17 6 9 1025.9 1025.8 0.0
16/11:00am 13.8 11.0 5.2 56 4.0 S 9 17 5 9 1025.8 1025.7 0.0
16/10:30am 13.4 10.1 4.3 54 4.2 SSW 11 20 6 11 1025.7 1025.6 0.0
16/10:00am 13.4 10.2 5.3 58 3.8 SW 11 17 6 9 1025.7 1025.6 0.0
16/09:30am 13.1 9.8 4.5 56 4.0 SW 11 17 6 9 1025.6 1025.5 0.0
16/09:00am 12.7 9.7 3.9 55 4.0 WSW 9 13 5 7 1025.4 1025.3 3.8
16/08:30am 12.5 9.2 4.5 58 3.7 WSW 11 15 6 8 1025.0 1025.0 3.8
16/08:00am 12.2 8.5 4.2 58 3.6 SW 13 19 7 10 1024.6 1024.6 3.8
16/07:30am 11.6 9.3 4.8 63 3.1 WSW 6 9 3 5 1024.2 1024.2 3.8
16/07:00am 12.1 8.7 3.9 57 3.7 SW 11 20 6 11 1023.9 1023.9 3.8
16/06:30am 12.4 8.7 4.4 58 3.6 SW 13 22 7 12 1023.5 1023.5 3.8
16/06:00am 12.5 8.8 4.2 57 3.8 SSW 13 20 7 11 1023.2 1023.2 3.8
16/05:30am 12.4 9.5 4.6 59 3.6 SSW 9 13 5 7 1022.9 1022.9 3.8
16/05:00am 12.5 9.2 4.7 59 3.6 S 11 24 6 13 1022.6 1022.6 3.8
16/04:30am 12.6 9.6 4.3 57 3.8 SSW 9 19 5 10 1022.5 1022.5 3.8
16/04:00am 12.6 9.3 4.6 58 3.7 SSW 11 20 6 11 1022.3 1022.3 3.8
16/03:30am 12.6 9.6 4.3 57 3.8 SW 9 13 5 7 1022.3 1022.3 3.8
16/03:00am 12.7 9.8 4.4 57 3.8 SSW 9 13 5 7 1022.2 1022.2 3.8
16/02:30am 12.6 8.8 4.1 56 3.9 SSW 13 20 7 11 1022.1 1022.1 3.8
16/02:00am 12.6 9.4 5.1 60 3.5 SW 11 20 6 11 1022.0 1022.0 3.8
16/01:30am 12.4 8.9 5.3 62 3.3 SSW 13 19 7 10 1021.8 1021.8 3.8
16/01:00am 12.5 9.2 6.3 66 2.9 SSW 13 20 7 11 1021.6 1021.6 3.8
16/12:30am 12.4 8.8 6.9 69 2.6 SSW 15 22 8 12 1021.5 1021.5 3.8
16/12:00am 11.5 7.6 5.4 66 2.8 WSW 15 19 8 10 1021.4 1021.4 3.8
 
Date/Time
EST
Temp
°C
App
Temp
°C
Dew
Point
°C
Rel
Hum
%
Delta-T
°C
Wind Press
QNH
hPa
Press
MSL
hPa
Rain since
9am
mm
Dir  Spd
km/h
Gust
km/h
Spd
kts
Gust
kts
15/11:30pm 10.2 6.4 3.9 65 2.8 WSW 13 17 7 9 1021.3 1021.3 3.8
15/11:00pm 11.0 6.8 3.8 61 3.2 SW 15 19 8 10 1021.6 1021.6 3.8
15/10:30pm 11.8 8.4 5.9 67 2.8 WSW 13 17 7 9 1021.5 1021.5 3.8
15/10:00pm 11.8 8.2 4.8 62 3.2 SW 13 20 7 11 1021.2 1021.2 3.8
15/09:30pm 11.9 8.0 5.3 64 3.1 SW 15 22 8 12 1021.2 1021.2 3.8
15/09:00pm 12.2 7.6 5.4 63 3.2 SW 19 28 10 15 1020.8 1020.8 3.8
15/08:30pm 12.9 9.0 6.9 67 2.9 SW 17 24 9 13 1020.4 1020.4 3.8
15/08:00pm 13.3 9.7 8.2 71 2.5 SW 17 30 9 16 1020.1 1020.1 3.8
15/07:30pm 13.6 10.2 9.1 74 2.3 SSW 17 30 9 16 1019.5 1019.5 3.8
15/07:00pm 13.3 10.4 9.5 78 1.9 SW 15 22 8 12 1019.1 1019.1 3.8
15/06:30pm 13.0 10.2 10.0 82 1.5 SW 15 24 8 13 1018.4 1018.4 3.8
15/06:00pm 13.1 9.9 10.1 82 1.5 WSW 17 24 9 13 1017.9 1017.9 3.8
15/05:30pm 13.7 9.7 10.3 80 1.8 WSW 22 32 12 17 1017.6 1017.5 3.8
15/05:00pm 14.4 9.6 10.2 76 2.2 WSW 26 41 14 22 1017.3 1017.2 3.8
15/04:30pm 15.6 11.4 11.0 74 2.5 WSW 24 35 13 19 1016.9 1016.8 3.8
15/04:00pm 14.6 11.4 11.2 80 1.8 W 19 28 10 15 1016.8 1016.7 3.8
15/03:30pm 15.2 11.2 11.8 80 1.8 WSW 24 39 13 21 1016.7 1016.6 3.8
15/03:00pm 14.8 9.3 11.8 82 1.6 WSW 32 44 17 24 1016.5 1016.4 3.8
15/02:30pm 14.2 9.5 12.1 87 1.1 WSW 28 43 15 23 1016.2 1016.1 3.8
15/02:20pm 15.4 10.8 11.0 75 2.4 WSW 26 35 14 19 1016.2 1016.1 3.2
15/02:00pm 16.3 9.7 11.2 72 2.7 W 37 48 20 26 1016.0 1015.9 3.2
15/01:30pm 15.9 9.7 11.5 75 2.4 W 35 44 19 24 1016.0 1015.9 3.2
15/01:00pm 15.6 9.8 11.6 77 2.2 W 33 44 18 24 1016.2 1016.1 3.2
15/12:30pm 16.0 11.6 14.2 89 1.0 W 30 39 16 21 1016.4 1016.3 3.2
15/12:00pm 13.9 9.4 12.6 92 0.7 W 28 39 15 21 1016.5 1016.4 3.2
15/11:50am 13.6 9.1 12.5 93 0.6 W 28 46 15 25 1016.6 1016.5 3.2
15/11:30am 13.2 8.4 11.8 91 0.8 WSW 28 41 15 22 1016.6 1016.5 3.0
15/11:18am 13.3 8.6 11.9 91 0.8 WSW 28 39 15 21 1016.6 1016.5 2.8
15/11:06am 13.1 8.5 11.2 88 1.0 WSW 26 39 14 21 1016.6 1016.5 2.8
15/11:00am 13.0 7.5 10.5 85 1.3 WSW 30 41 16 22 1016.6 1016.5 2.0
15/10:49am 14.3 8.7 11.5 83 1.5 W 32 50 17 27 1016.4 1016.3 1.8
15/10:30am 15.5 9.4 11.7 78 2.1 W 35 46 19 25 1016.2 1016.1 1.6
15/10:01am 14.6 8.1 11.7 83 1.6 W 37 50 20 27 1016.0 1015.9 1.6
15/10:00am 14.6 8.5 11.9 84 1.5 W 35 48 19 26 1016.1 1016.0 1.4
15/09:54am 14.2 9.6 12.2 88 1.1 W 28 46 15 25 1016.1 1016.0 1.4
15/09:43am 13.9 9.8 11.4 85 1.3 W 24 43 13 23 1016.2 1016.1 1.2
15/09:35am 14.5 10.1 11.7 83 1.5 W 26 41 14 22 1016.0 1015.9 0.2
15/09:30am 14.3 10.3 11.8 85 1.3 W 24 41 13 22 1016.0 1015.9 0.2
15/09:19am 14.2 8.3 10.6 79 1.9 W 32 44 17 24 1016.0 1015.9 0.2
15/09:00am 15.7 9.6 9.8 68 3.1 W 32 43 17 23 1015.8 1015.7 0.2
15/08:30am 15.3 10.0 9.7 69 2.9 W 28 37 15 20 1015.6 1015.5 0.2
15/08:00am 14.7 9.1 8.9 68 3.0 W 28 39 15 21 1015.3 1015.2 0.2
15/07:30am 14.6 8.6 8.8 68 3.0 W 30 39 16 21 1015.1 1015.0 0.2
15/07:00am 14.1 8.2 9.1 72 2.6 W 30 43 16 23 1015.0 1014.9 0.2

Other formats

Comma delimited format used in spreadsheet applications
http://www.bom.gov.au/fwo/IDV60801/IDV60801.94828.axf

JavaScript Object Notation format (JSON) in row-major order
http://www.bom.gov.au/fwo/IDV60801/IDV60801.94828.json

Data quality

Most of these data are generated automatically and are frequently updated. Quality checks on data are not normally performed. It is possible for incorrect values to appear. Refer to information at About Latest Weather Observations and please check the disclaimer before using these data.